sensor_id;sensor_type;location;lat;lon;timestamp;temperature;humidity
1103;DHT22;538;42.654;23.376;2023-03-14T00:00:12;5.20;4.70
1103;DHT22;538;42.654;23.376;2023-03-14T00:02:40;5.10;4.80
1103;DHT22;538;42.654;23.376;2023-03-14T00:05:09;5.10;4.70
1103;DHT22;538;42.654;23.376;2023-03-14T00:07:38;5.00;4.60
1103;DHT22;538;42.654;23.376;2023-03-14T00:10:07;4.90;4.60
1103;DHT22;538;42.654;23.376;2023-03-14T00:12:34;4.90;4.70
1103;DHT22;538;42.654;23.376;2023-03-14T00:15:02;5.00;4.80
1103;DHT22;538;42.654;23.376;2023-03-14T00:17:30;4.80;4.60
1103;DHT22;538;42.654;23.376;2023-03-14T00:22:31;4.80;4.50
1103;DHT22;538;42.654;23.376;2023-03-14T00:24:58;4.90;4.50
1103;DHT22;538;42.654;23.376;2023-03-14T00:27:25;4.80;4.50
1103;DHT22;538;42.654;23.376;2023-03-14T00:29:52;4.70;4.50
1103;DHT22;538;42.654;23.376;2023-03-14T00:32:21;4.80;4.70
1103;DHT22;538;42.654;23.376;2023-03-14T00:37:15;5.00;4.70
1103;DHT22;538;42.654;23.376;2023-03-14T00:39:44;5.00;4.80
1103;DHT22;538;42.654;23.376;2023-03-14T00:42:11;4.80;4.60
1103;DHT22;538;42.654;23.376;2023-03-14T00:44:38;4.70;4.70
1103;DHT22;538;42.654;23.376;2023-03-14T00:47:05;4.60;4.70
1103;DHT22;538;42.654;23.376;2023-03-14T00:49:32;4.80;5.10
1103;DHT22;538;42.654;23.376;2023-03-14T00:51:59;4.70;5.20
1103;DHT22;538;42.654;23.376;2023-03-14T00:54:26;4.70;5.30
1103;DHT22;538;42.654;23.376;2023-03-14T00:56:55;4.70;5.60
1103;DHT22;538;42.654;23.376;2023-03-14T00:59:22;4.70;5.70
1103;DHT22;538;42.654;23.376;2023-03-14T01:01:49;4.70;5.70
1103;DHT22;538;42.654;23.376;2023-03-14T01:04:16;4.80;6.10
1103;DHT22;538;42.654;23.376;2023-03-14T01:06:43;4.60;6.10
1103;DHT22;538;42.654;23.376;2023-03-14T01:09:10;4.70;6.20
1103;DHT22;538;42.654;23.376;2023-03-14T01:11:37;4.60;6.40
1103;DHT22;538;42.654;23.376;2023-03-14T01:14:06;4.60;6.50
1103;DHT22;538;42.654;23.376;2023-03-14T01:16:34;4.50;6.50
1103;DHT22;538;42.654;23.376;2023-03-14T01:19:01;4.50;6.60
1103;DHT22;538;42.654;23.376;2023-03-14T01:21:30;4.40;6.80
1103;DHT22;538;42.654;23.376;2023-03-14T01:23:59;4.30;6.90
1103;DHT22;538;42.654;23.376;2023-03-14T01:26:30;4.30;7.20
1103;DHT22;538;42.654;23.376;2023-03-14T01:28:57;4.00;7.10
1103;DHT22;538;42.654;23.376;2023-03-14T01:31:27;4.20;7.20
1103;DHT22;538;42.654;23.376;2023-03-14T01:33:54;4.10;7.20
1103;DHT22;538;42.654;23.376;2023-03-14T01:36:21;4.20;7.20
1103;DHT22;538;42.654;23.376;2023-03-14T01:41:18;4.30;7.40
1103;DHT22;538;42.654;23.376;2023-03-14T01:43:45;4.30;7.50
1103;DHT22;538;42.654;23.376;2023-03-14T01:49:22;4.20;7.30
1103;DHT22;538;42.654;23.376;2023-03-14T01:51:54;4.20;7.30
1103;DHT22;538;42.654;23.376;2023-03-14T01:54:25;4.30;7.30
1103;DHT22;538;42.654;23.376;2023-03-14T01:56:57;4.10;7.20
1103;DHT22;538;42.654;23.376;2023-03-14T01:59:29;4.10;7.20
1103;DHT22;538;42.654;23.376;2023-03-14T02:01:57;4.10;7.30
1103;DHT22;538;42.654;23.376;2023-03-14T02:04:29;4.00;7.30
1103;DHT22;538;42.654;23.376;2023-03-14T02:06:59;4.10;7.50
1103;DHT22;538;42.654;23.376;2023-03-14T02:11:54;4.20;8.00
1103;DHT22;538;42.654;23.376;2023-03-14T02:14:31;4.10;8.20
1103;DHT22;538;42.654;23.376;2023-03-14T02:16:59;4.10;8.70
1103;DHT22;538;42.654;23.376;2023-03-14T02:19:49;3.80;9.10
1103;DHT22;538;42.654;23.376;2023-03-14T02:22:17;3.70;9.40
1103;DHT22;538;42.654;23.376;2023-03-14T02:24:49;3.70;9.70
1103;DHT22;538;42.654;23.376;2023-03-14T02:27:20;3.60;10.10
1103;DHT22;538;42.654;23.376;2023-03-14T02:29:51;3.70;10.40
1103;DHT22;538;42.654;23.376;2023-03-14T02:32:20;3.50;10.70
1103;DHT22;538;42.654;23.376;2023-03-14T02:34:50;3.50;11.10
1103;DHT22;538;42.654;23.376;2023-03-14T02:37:22;3.50;11.40
1103;DHT22;538;42.654;23.376;2023-03-14T02:42:18;3.50;11.70
1103;DHT22;538;42.654;23.376;2023-03-14T02:44:51;3.50;11.60
1103;DHT22;538;42.654;23.376;2023-03-14T02:47:23;3.70;11.70
1103;DHT22;538;42.654;23.376;2023-03-14T02:49:59;3.50;11.70
1103;DHT22;538;42.654;23.376;2023-03-14T02:52:27;3.60;11.70
1103;DHT22;538;42.654;23.376;2023-03-14T02:57:22;3.40;11.80
1103;DHT22;538;42.654;23.376;2023-03-14T02:59:50;3.40;12.00
1103;DHT22;538;42.654;23.376;2023-03-14T03:02:17;3.40;12.20
1103;DHT22;538;42.654;23.376;2023-03-14T03:04:44;3.20;12.40
1103;DHT22;538;42.654;23.376;2023-03-14T03:09:38;3.20;13.00
1103;DHT22;538;42.654;23.376;2023-03-14T03:12:05;3.30;13.30
1103;DHT22;538;42.654;23.376;2023-03-14T03:14:34;3.20;13.40
1103;DHT22;538;42.654;23.376;2023-03-14T03:17:03;3.20;13.50
1103;DHT22;538;42.654;23.376;2023-03-14T03:19:30;3.20;13.60
1103;DHT22;538;42.654;23.376;2023-03-14T03:21:57;3.30;13.50
1103;DHT22;538;42.654;23.376;2023-03-14T03:24:25;3.20;13.40
1103;DHT22;538;42.654;23.376;2023-03-14T03:26:52;3.30;13.60
1103;DHT22;538;42.654;23.376;2023-03-14T03:29:19;3.30;13.60
1103;DHT22;538;42.654;23.376;2023-03-14T03:31:48;3.20;13.60
1103;DHT22;538;42.654;23.376;2023-03-14T03:34:15;3.30;13.80
1103;DHT22;538;42.654;23.376;2023-03-14T03:36:42;3.10;13.80
1103;DHT22;538;42.654;23.376;2023-03-14T03:39:09;3.20;13.90
1103;DHT22;538;42.654;23.376;2023-03-14T03:41:36;3.30;14.00
1103;DHT22;538;42.654;23.376;2023-03-14T03:44:04;3.30;13.90
1103;DHT22;538;42.654;23.376;2023-03-14T03:46:31;3.30;13.80
1103;DHT22;538;42.654;23.376;2023-03-14T03:49:00;3.30;13.80
1103;DHT22;538;42.654;23.376;2023-03-14T03:51:27;3.40;13.70
1103;DHT22;538;42.654;23.376;2023-03-14T03:53:56;3.30;13.60
1103;DHT22;538;42.654;23.376;2023-03-14T03:56:23;3.40;13.60
1103;DHT22;538;42.654;23.376;2023-03-14T03:58:50;3.30;13.50
1103;DHT22;538;42.654;23.376;2023-03-14T04:01:17;3.10;13.50
1103;DHT22;538;42.654;23.376;2023-03-14T04:06:13;3.10;13.40
1103;DHT22;538;42.654;23.376;2023-03-14T04:08:41;3.10;13.80
1103;DHT22;538;42.654;23.376;2023-03-14T04:11:08;3.20;14.00
1103;DHT22;538;42.654;23.376;2023-03-14T04:13:35;3.00;14.10
1103;DHT22;538;42.654;23.376;2023-03-14T04:16:03;2.80;14.20
1103;DHT22;538;42.654;23.376;2023-03-14T04:18:30;2.90;14.40
1103;DHT22;538;42.654;23.376;2023-03-14T04:20:57;2.80;14.30
1103;DHT22;538;42.654;23.376;2023-03-14T04:23:26;2.80;14.50
1103;DHT22;538;42.654;23.376;2023-03-14T04:25:53;2.80;14.50
1103;DHT22;538;42.654;23.376;2023-03-14T04:28:20;2.70;14.50
1103;DHT22;538;42.654;23.376;2023-03-14T04:30:47;2.80;14.60
1103;DHT22;538;42.654;23.376;2023-03-14T04:35:43;2.80;14.40
1103;DHT22;538;42.654;23.376;2023-03-14T04:38:10;2.80;14.50
1103;DHT22;538;42.654;23.376;2023-03-14T04:40:39;2.90;14.60
1103;DHT22;538;42.654;23.376;2023-03-14T04:43:06;2.80;14.40
1103;DHT22;538;42.654;23.376;2023-03-14T04:50:27;3.00;14.80
1103;DHT22;538;42.654;23.376;2023-03-14T04:52:55;3.00;14.80
1103;DHT22;538;42.654;23.376;2023-03-14T04:55:21;3.00;14.80
1103;DHT22;538;42.654;23.376;2023-03-14T04:57:50;2.90;14.70
1103;DHT22;538;42.654;23.376;2023-03-14T05:02:45;3.00;14.70
1103;DHT22;538;42.654;23.376;2023-03-14T05:05:12;3.10;14.70
1103;DHT22;538;42.654;23.376;2023-03-14T05:07:39;3.10;14.60
1103;DHT22;538;42.654;23.376;2023-03-14T05:10:07;3.20;14.60
1103;DHT22;538;42.654;23.376;2023-03-14T05:12:34;3.20;14.50
1103;DHT22;538;42.654;23.376;2023-03-14T05:15:03;3.20;14.30
1103;DHT22;538;42.654;23.376;2023-03-14T05:17:32;3.40;14.20
1103;DHT22;538;42.654;23.376;2023-03-14T05:19:59;3.60;14.10
1103;DHT22;538;42.654;23.376;2023-03-14T05:22:26;3.60;13.70
1103;DHT22;538;42.654;23.376;2023-03-14T05:32:18;4.50;14.30
1103;DHT22;538;42.654;23.376;2023-03-14T05:37:12;4.00;13.50
1103;DHT22;538;42.654;23.376;2023-03-14T05:39:39;4.00;13.10
1103;DHT22;538;42.654;23.376;2023-03-14T05:42:06;4.00;12.60
1103;DHT22;538;42.654;23.376;2023-03-14T05:44:33;4.20;12.60
1103;DHT22;538;42.654;23.376;2023-03-14T05:47:00;4.10;12.20
1103;DHT22;538;42.654;23.376;2023-03-14T05:49:28;4.10;12.00
1103;DHT22;538;42.654;23.376;2023-03-14T05:51:55;4.10;11.80
1103;DHT22;538;42.654;23.376;2023-03-14T05:56:50;4.10;11.70
1103;DHT22;538;42.654;23.376;2023-03-14T05:59:17;4.20;11.80
1103;DHT22;538;42.654;23.376;2023-03-14T06:01:44;4.10;11.90
1103;DHT22;538;42.654;23.376;2023-03-14T06:04:11;4.10;11.80
1103;DHT22;538;42.654;23.376;2023-03-14T06:06:40;4.30;11.60
1103;DHT22;538;42.654;23.376;2023-03-14T06:09:07;4.80;11.70
1103;DHT22;538;42.654;23.376;2023-03-14T06:11:34;4.50;11.40
1103;DHT22;538;42.654;23.376;2023-03-14T06:14:01;4.70;11.20
1103;DHT22;538;42.654;23.376;2023-03-14T06:16:28;4.60;11.10
1103;DHT22;538;42.654;23.376;2023-03-14T06:18:55;4.60;11.00
1103;DHT22;538;42.654;23.376;2023-03-14T06:21:22;4.60;11.00
1103;DHT22;538;42.654;23.376;2023-03-14T06:23:51;4.70;10.80
1103;DHT22;538;42.654;23.376;2023-03-14T06:26:18;4.90;10.70
1103;DHT22;538;42.654;23.376;2023-03-14T06:28:45;4.70;10.50
1103;DHT22;538;42.654;23.376;2023-03-14T06:31:12;4.70;10.50
1103;DHT22;538;42.654;23.376;2023-03-14T06:33:39;4.80;10.50
1103;DHT22;538;42.654;23.376;2023-03-14T06:36:07;4.90;10.20
1103;DHT22;538;42.654;23.376;2023-03-14T06:38:35;5.00;10.00
1103;DHT22;538;42.654;23.376;2023-03-14T06:41:05;5.00;9.70
1103;DHT22;538;42.654;23.376;2023-03-14T06:43:35;4.90;9.40
1103;DHT22;538;42.654;23.376;2023-03-14T06:46:02;5.10;9.20
1103;DHT22;538;42.654;23.376;2023-03-14T06:48:29;5.20;8.90
1103;DHT22;538;42.654;23.376;2023-03-14T06:53:24;5.30;8.70
1103;DHT22;538;42.654;23.376;2023-03-14T06:55:51;5.40;8.50
1103;DHT22;538;42.654;23.376;2023-03-14T06:58:20;5.30;8.40
1103;DHT22;538;42.654;23.376;2023-03-14T07:00:47;5.60;8.40
1103;DHT22;538;42.654;23.376;2023-03-14T07:03:14;5.50;7.90
1103;DHT22;538;42.654;23.376;2023-03-14T07:05:41;5.70;8.00
1103;DHT22;538;42.654;23.376;2023-03-14T07:08:08;5.80;7.90
1103;DHT22;538;42.654;23.376;2023-03-14T07:13:03;6.10;7.50
1103;DHT22;538;42.654;23.376;2023-03-14T07:15:31;6.00;7.40
1103;DHT22;538;42.654;23.376;2023-03-14T07:17:59;6.20;7.60
1103;DHT22;538;42.654;23.376;2023-03-14T07:20:26;6.20;7.60
1103;DHT22;538;42.654;23.376;2023-03-14T07:25:21;6.30;7.70
1103;DHT22;538;42.654;23.376;2023-03-14T07:27:48;6.40;7.80
1103;DHT22;538;42.654;23.376;2023-03-14T07:30:16;6.40;7.70
1103;DHT22;538;42.654;23.376;2023-03-14T07:32:44;6.50;7.70
1103;DHT22;538;42.654;23.376;2023-03-14T07:35:11;6.60;7.30
1103;DHT22;538;42.654;23.376;2023-03-14T07:37:38;6.70;7.40
1103;DHT22;538;42.654;23.376;2023-03-14T07:40:07;6.70;7.30
1103;DHT22;538;42.654;23.376;2023-03-14T07:42:36;6.70;6.80
1103;DHT22;538;42.654;23.376;2023-03-14T07:45:03;7.00;6.80
1103;DHT22;538;42.654;23.376;2023-03-14T07:47:30;6.90;6.10
1103;DHT22;538;42.654;23.376;2023-03-14T07:49:58;6.90;5.50
1103;DHT22;538;42.654;23.376;2023-03-14T07:52:25;7.20;5.20
1103;DHT22;538;42.654;23.376;2023-03-14T07:54:53;7.20;5.10
1103;DHT22;538;42.654;23.376;2023-03-14T07:57:21;7.10;5.50
1103;DHT22;538;42.654;23.376;2023-03-14T07:59:49;7.20;5.90
1103;DHT22;538;42.654;23.376;2023-03-14T08:02:16;7.10;5.30
1103;DHT22;538;42.654;23.376;2023-03-14T08:07:14;7.30;5.40
1103;DHT22;538;42.654;23.376;2023-03-14T08:09:41;7.50;5.40
1103;DHT22;538;42.654;23.376;2023-03-14T08:14:35;7.70;5.20
1103;DHT22;538;42.654;23.376;2023-03-14T08:17:02;7.70;4.70
1103;DHT22;538;42.654;23.376;2023-03-14T08:19:30;7.80;4.60
1103;DHT22;538;42.654;23.376;2023-03-14T08:21:57;7.80;4.30
1103;DHT22;538;42.654;23.376;2023-03-14T08:24:26;8.00;4.70
1103;DHT22;538;42.654;23.376;2023-03-14T08:26:53;8.10;4.80
1103;DHT22;538;42.654;23.376;2023-03-14T08:31:47;8.40;4.60
1103;DHT22;538;42.654;23.376;2023-03-14T08:34:14;8.70;4.40
1103;DHT22;538;42.654;23.376;2023-03-14T08:36:41;8.70;3.50
1103;DHT22;538;42.654;23.376;2023-03-14T08:39:08;9.10;3.30
1103;DHT22;538;42.654;23.376;2023-03-14T08:41:37;9.10;3.00
1103;DHT22;538;42.654;23.376;2023-03-14T08:44:06;9.40;2.60
1103;DHT22;538;42.654;23.376;2023-03-14T08:46:34;9.70;1.40
1103;DHT22;538;42.654;23.376;2023-03-14T08:49:01;9.80;1.20
1103;DHT22;538;42.654;23.376;2023-03-14T08:51:28;10.00;1.00
1103;DHT22;538;42.654;23.376;2023-03-14T08:53:55;10.20;1.00
1103;DHT22;538;42.654;23.376;2023-03-14T08:56:22;10.30;1.00
1103;DHT22;538;42.654;23.376;2023-03-14T08:58:50;10.50;1.00
1103;DHT22;538;42.654;23.376;2023-03-14T09:01:17;10.80;1.00
1103;DHT22;538;42.654;23.376;2023-03-14T09:03:44;11.30;1.00
1103;DHT22;538;42.654;23.376;2023-03-14T09:06:13;11.70;1.00
1103;DHT22;538;42.654;23.376;2023-03-14T09:08:43;11.90;1.00
1103;DHT22;538;42.654;23.376;2023-03-14T09:11:11;12.40;1.00
1103;DHT22;538;42.654;23.376;2023-03-14T09:13:38;12.50;1.00
1103;DHT22;538;42.654;23.376;2023-03-14T09:16:08;13.60;1.00
1103;DHT22;538;42.654;23.376;2023-03-14T09:18:35;13.90;1.00
1103;DHT22;538;42.654;23.376;2023-03-14T09:21:02;14.20;1.00
1103;DHT22;538;42.654;23.376;2023-03-14T09:23:29;14.50;1.00
1103;DHT22;538;42.654;23.376;2023-03-14T09:25:57;15.00;1.00
1103;DHT22;538;42.654;23.376;2023-03-14T09:28:24;15.60;1.00
1103;DHT22;538;42.654;23.376;2023-03-14T09:30:52;16.10;1.00
1103;DHT22;538;42.654;23.376;2023-03-14T09:33:21;16.50;1.00
1103;DHT22;538;42.654;23.376;2023-03-14T09:35:48;16.70;1.00
1103;DHT22;538;42.654;23.376;2023-03-14T09:38:15;16.90;1.00
1103;DHT22;538;42.654;23.376;2023-03-14T09:40:42;17.30;1.00
1103;DHT22;538;42.654;23.376;2023-03-14T09:43:11;17.40;1.00
1103;DHT22;538;42.654;23.376;2023-03-14T09:45:41;17.80;1.00
1103;DHT22;538;42.654;23.376;2023-03-14T09:48:15;18.10;1.00
1103;DHT22;538;42.654;23.376;2023-03-14T09:50:48;18.40;1.00
1103;DHT22;538;42.654;23.376;2023-03-14T09:53:17;18.70;1.00
1103;DHT22;538;42.654;23.376;2023-03-14T09:55:45;19.10;1.00
1103;DHT22;538;42.654;23.376;2023-03-14T09:58:16;19.30;1.00
1103;DHT22;538;42.654;23.376;2023-03-14T10:03:26;19.90;1.00
1103;DHT22;538;42.654;23.376;2023-03-14T10:05:55;20.20;1.00
1103;DHT22;538;42.654;23.376;2023-03-14T10:08:22;20.50;1.00
1103;DHT22;538;42.654;23.376;2023-03-14T10:10:49;20.90;1.00
1103;DHT22;538;42.654;23.376;2023-03-14T10:13:18;21.10;1.00
1103;DHT22;538;42.654;23.376;2023-03-14T10:15:51;21.50;1.00
1103;DHT22;538;42.654;23.376;2023-03-14T10:18:18;21.90;1.00
1103;DHT22;538;42.654;23.376;2023-03-14T10:20:46;22.10;1.00
1103;DHT22;538;42.654;23.376;2023-03-14T10:23:27;22.30;1.00
1103;DHT22;538;42.654;23.376;2023-03-14T10:26:07;22.50;1.00
1103;DHT22;538;42.654;23.376;2023-03-14T10:28:39;22.50;1.00
1103;DHT22;538;42.654;23.376;2023-03-14T10:31:09;22.70;1.00
1103;DHT22;538;42.654;23.376;2023-03-14T10:33:37;23.00;1.00
1103;DHT22;538;42.654;23.376;2023-03-14T10:36:14;23.30;1.00
1103;DHT22;538;42.654;23.376;2023-03-14T10:38:43;23.70;1.00
1103;DHT22;538;42.654;23.376;2023-03-14T10:41:16;24.00;1.00
1103;DHT22;538;42.654;23.376;2023-03-14T10:43:44;23.90;1.00
1103;DHT22;538;42.654;23.376;2023-03-14T10:46:15;24.00;1.00
1103;DHT22;538;42.654;23.376;2023-03-14T10:48:43;24.00;1.00
1103;DHT22;538;42.654;23.376;2023-03-14T10:51:18;24.40;1.00
1103;DHT22;538;42.654;23.376;2023-03-14T10:53:49;24.40;1.00
1103;DHT22;538;42.654;23.376;2023-03-14T10:56:23;24.40;1.00
1103;DHT22;538;42.654;23.376;2023-03-14T10:58:53;24.60;1.00
1103;DHT22;538;42.654;23.376;2023-03-14T11:01:36;24.70;1.00
1103;DHT22;538;42.654;23.376;2023-03-14T11:04:14;24.70;1.00
1103;DHT22;538;42.654;23.376;2023-03-14T11:06:44;25.40;1.00
1103;DHT22;538;42.654;23.376;2023-03-14T11:09:21;25.70;1.00
1103;DHT22;538;42.654;23.376;2023-03-14T11:11:49;26.00;1.00
1103;DHT22;538;42.654;23.376;2023-03-14T11:14:24;26.30;1.00
1103;DHT22;538;42.654;23.376;2023-03-14T11:17:00;26.40;1.00
1103;DHT22;538;42.654;23.376;2023-03-14T11:20:03;26.90;1.00
1103;DHT22;538;42.654;23.376;2023-03-14T11:22:39;27.90;1.00
1103;DHT22;538;42.654;23.376;2023-03-14T11:25:18;28.40;1.00
1103;DHT22;538;42.654;23.376;2023-03-14T11:27:55;28.50;1.00
1103;DHT22;538;42.654;23.376;2023-03-14T11:30:34;29.70;1.00
1103;DHT22;538;42.654;23.376;2023-03-14T11:33:05;30.20;1.00
1103;DHT22;538;42.654;23.376;2023-03-14T11:35:38;30.30;1.00
1103;DHT22;538;42.654;23.376;2023-03-14T11:38:14;30.30;1.00
1103;DHT22;538;42.654;23.376;2023-03-14T11:40:44;31.60;1.00
1103;DHT22;538;42.654;23.376;2023-03-14T11:43:15;31.50;1.00
1103;DHT22;538;42.654;23.376;2023-03-14T11:45:44;31.90;1.00
1103;DHT22;538;42.654;23.376;2023-03-14T11:48:20;32.70;1.00
1103;DHT22;538;42.654;23.376;2023-03-14T11:50:52;33.10;1.00
1103;DHT22;538;42.654;23.376;2023-03-14T11:53:25;33.70;1.00
1103;DHT22;538;42.654;23.376;2023-03-14T11:55:57;33.80;1.00
1103;DHT22;538;42.654;23.376;2023-03-14T11:58:27;34.40;1.00
1103;DHT22;538;42.654;23.376;2023-03-14T12:00:57;34.50;1.00
1103;DHT22;538;42.654;23.376;2023-03-14T12:03:31;35.20;1.00
1103;DHT22;538;42.654;23.376;2023-03-14T12:06:09;35.40;1.00
1103;DHT22;538;42.654;23.376;2023-03-14T12:08:43;36.00;1.00
1103;DHT22;538;42.654;23.376;2023-03-14T12:11:19;35.80;1.00
1103;DHT22;538;42.654;23.376;2023-03-14T12:13:49;35.50;1.00
1103;DHT22;538;42.654;23.376;2023-03-14T12:16:33;35.50;1.00
1103;DHT22;538;42.654;23.376;2023-03-14T12:22:23;35.70;1.00
1103;DHT22;538;42.654;23.376;2023-03-14T12:24:53;35.90;1.00
1103;DHT22;538;42.654;23.376;2023-03-14T12:27:43;35.90;1.00
1103;DHT22;538;42.654;23.376;2023-03-14T12:30:27;36.50;1.00
1103;DHT22;538;42.654;23.376;2023-03-14T12:36:03;38.00;1.00
1103;DHT22;538;42.654;23.376;2023-03-14T12:38:59;38.90;1.00
1103;DHT22;538;42.654;23.376;2023-03-14T12:41:34;40.40;1.00
1103;DHT22;538;42.654;23.376;2023-03-14T12:47:49;41.50;1.00
1103;DHT22;538;42.654;23.376;2023-03-14T12:50:25;41.70;1.00
1103;DHT22;538;42.654;23.376;2023-03-14T12:55:53;39.20;1.00
1103;DHT22;538;42.654;23.376;2023-03-14T12:58:28;39.00;1.00
1103;DHT22;538;42.654;23.376;2023-03-14T13:01:00;37.40;1.00
1103;DHT22;538;42.654;23.376;2023-03-14T13:03:41;37.60;1.00
1103;DHT22;538;42.654;23.376;2023-03-14T13:06:10;37.60;1.00
1103;DHT22;538;42.654;23.376;2023-03-14T13:08:40;38.00;1.00
1103;DHT22;538;42.654;23.376;2023-03-14T13:11:10;38.30;1.00
1103;DHT22;538;42.654;23.376;2023-03-14T13:13:42;38.90;1.00
1103;DHT22;538;42.654;23.376;2023-03-14T13:16:15;38.90;1.00
1103;DHT22;538;42.654;23.376;2023-03-14T13:18:45;39.90;1.00
1103;DHT22;538;42.654;23.376;2023-03-14T13:21:15;39.80;1.00
1103;DHT22;538;42.654;23.376;2023-03-14T13:23:57;40.20;1.00
1103;DHT22;538;42.654;23.376;2023-03-14T13:26:31;40.20;1.00
1103;DHT22;538;42.654;23.376;2023-03-14T13:28:59;40.70;1.00
1103;DHT22;538;42.654;23.376;2023-03-14T13:31:27;41.20;1.00
1103;DHT22;538;42.654;23.376;2023-03-14T13:34:02;41.30;1.00
1103;DHT22;538;42.654;23.376;2023-03-14T13:36:31;41.30;1.00
1103;DHT22;538;42.654;23.376;2023-03-14T13:39:00;41.10;1.00
1103;DHT22;538;42.654;23.376;2023-03-14T13:41:30;40.70;1.00
1103;DHT22;538;42.654;23.376;2023-03-14T13:44:03;40.70;1.00
1103;DHT22;538;42.654;23.376;2023-03-14T13:46:34;40.40;1.00
1103;DHT22;538;42.654;23.376;2023-03-14T13:49:05;40.30;1.00
1103;DHT22;538;42.654;23.376;2023-03-14T13:51:33;40.50;1.00
1103;DHT22;538;42.654;23.376;2023-03-14T13:54:00;40.50;1.00
1103;DHT22;538;42.654;23.376;2023-03-14T13:56:30;40.50;1.00
1103;DHT22;538;42.654;23.376;2023-03-14T13:58:57;40.80;1.00
1103;DHT22;538;42.654;23.376;2023-03-14T14:01:27;41.10;1.00
1103;DHT22;538;42.654;23.376;2023-03-14T14:03:58;41.40;1.00
1103;DHT22;538;42.654;23.376;2023-03-14T14:06:32;41.00;1.00
1103;DHT22;538;42.654;23.376;2023-03-14T14:09:02;40.70;1.00
1103;DHT22;538;42.654;23.376;2023-03-14T14:11:39;39.30;1.00
1103;DHT22;538;42.654;23.376;2023-03-14T14:14:13;38.10;1.00
1103;DHT22;538;42.654;23.376;2023-03-14T14:16:43;37.60;1.00
1103;DHT22;538;42.654;23.376;2023-03-14T14:19:11;37.60;1.00
1103;DHT22;538;42.654;23.376;2023-03-14T14:21:41;37.40;1.00
1103;DHT22;538;42.654;23.376;2023-03-14T14:24:10;37.00;1.00
1103;DHT22;538;42.654;23.376;2023-03-14T14:26:40;36.70;1.00
1103;DHT22;538;42.654;23.376;2023-03-14T14:29:23;36.30;1.00
1103;DHT22;538;42.654;23.376;2023-03-14T14:32:00;35.70;1.00
1103;DHT22;538;42.654;23.376;2023-03-14T14:34:28;35.40;1.00
1103;DHT22;538;42.654;23.376;2023-03-14T14:36:57;35.40;1.00
1103;DHT22;538;42.654;23.376;2023-03-14T14:39:27;36.60;1.00
1103;DHT22;538;42.654;23.376;2023-03-14T14:41:56;35.00;1.00
1103;DHT22;538;42.654;23.376;2023-03-14T14:44:28;34.60;1.00
1103;DHT22;538;42.654;23.376;2023-03-14T14:46:56;34.20;1.00
1103;DHT22;538;42.654;23.376;2023-03-14T14:49:29;33.80;1.00
1103;DHT22;538;42.654;23.376;2023-03-14T14:52:04;33.30;1.00
1103;DHT22;538;42.654;23.376;2023-03-14T14:54:37;32.50;1.00
1103;DHT22;538;42.654;23.376;2023-03-14T14:57:17;31.80;1.00
1103;DHT22;538;42.654;23.376;2023-03-14T14:59:44;31.10;1.00
1103;DHT22;538;42.654;23.376;2023-03-14T15:02:29;30.40;1.00
1103;DHT22;538;42.654;23.376;2023-03-14T15:04:57;29.90;1.00
1103;DHT22;538;42.654;23.376;2023-03-14T15:07:25;29.40;1.00
1103;DHT22;538;42.654;23.376;2023-03-14T15:09:52;28.80;1.00
1103;DHT22;538;42.654;23.376;2023-03-14T15:12:19;28.60;1.00
1103;DHT22;538;42.654;23.376;2023-03-14T15:14:50;28.30;1.00
1103;DHT22;538;42.654;23.376;2023-03-14T15:17:17;28.20;1.00
1103;DHT22;538;42.654;23.376;2023-03-14T15:19:44;27.70;1.00
1103;DHT22;538;42.654;23.376;2023-03-14T15:22:12;27.20;1.00
1103;DHT22;538;42.654;23.376;2023-03-14T15:24:42;26.70;1.00
1103;DHT22;538;42.654;23.376;2023-03-14T15:27:13;26.40;1.00
1103;DHT22;538;42.654;23.376;2023-03-14T15:29:41;25.90;1.00
1103;DHT22;538;42.654;23.376;2023-03-14T15:32:11;25.40;1.00
1103;DHT22;538;42.654;23.376;2023-03-14T15:34:38;24.80;1.00
1103;DHT22;538;42.654;23.376;2023-03-14T15:37:10;24.50;1.00
1103;DHT22;538;42.654;23.376;2023-03-14T15:39:38;24.20;1.00
1103;DHT22;538;42.654;23.376;2023-03-14T15:42:07;23.90;1.00
1103;DHT22;538;42.654;23.376;2023-03-14T15:44:35;23.40;1.00
1103;DHT22;538;42.654;23.376;2023-03-14T15:47:02;23.00;1.00
1103;DHT22;538;42.654;23.376;2023-03-14T15:49:29;22.60;1.00
1103;DHT22;538;42.654;23.376;2023-03-14T15:51:56;22.10;1.00
1103;DHT22;538;42.654;23.376;2023-03-14T15:54:23;21.70;1.00
1103;DHT22;538;42.654;23.376;2023-03-14T15:56:54;21.20;1.00
1103;DHT22;538;42.654;23.376;2023-03-14T15:59:22;20.70;1.00
1103;DHT22;538;42.654;23.376;2023-03-14T16:01:49;20.20;1.00
1103;DHT22;538;42.654;23.376;2023-03-14T16:04:17;19.60;1.00
1103;DHT22;538;42.654;23.376;2023-03-14T16:06:45;19.30;1.00
1103;DHT22;538;42.654;23.376;2023-03-14T16:09:13;18.80;1.00
1103;DHT22;538;42.654;23.376;2023-03-14T16:11:40;18.30;1.00
1103;DHT22;538;42.654;23.376;2023-03-14T16:14:07;17.70;1.00
1103;DHT22;538;42.654;23.376;2023-03-14T16:16:36;17.50;1.00
1103;DHT22;538;42.654;23.376;2023-03-14T16:19:03;17.10;1.00
1103;DHT22;538;42.654;23.376;2023-03-14T16:21:33;16.70;1.00
1103;DHT22;538;42.654;23.376;2023-03-14T16:26:31;16.20;1.00
1103;DHT22;538;42.654;23.376;2023-03-14T16:28:59;15.80;1.00
1103;DHT22;538;42.654;23.376;2023-03-14T16:31:26;15.60;1.00
1103;DHT22;538;42.654;23.376;2023-03-14T16:33:55;15.20;1.00
1103;DHT22;538;42.654;23.376;2023-03-14T16:36:22;14.90;1.00
1103;DHT22;538;42.654;23.376;2023-03-14T16:38:49;14.90;1.00
1103;DHT22;538;42.654;23.376;2023-03-14T16:41:18;14.70;1.00
1103;DHT22;538;42.654;23.376;2023-03-14T16:43:46;14.40;1.00
1103;DHT22;538;42.654;23.376;2023-03-14T16:46:17;14.20;1.00
1103;DHT22;538;42.654;23.376;2023-03-14T16:48:45;14.10;1.00
1103;DHT22;538;42.654;23.376;2023-03-14T16:51:13;13.90;1.00
1103;DHT22;538;42.654;23.376;2023-03-14T16:53:41;13.60;1.00
1103;DHT22;538;42.654;23.376;2023-03-14T16:56:08;13.50;1.00
1103;DHT22;538;42.654;23.376;2023-03-14T16:58:36;13.30;1.00
1103;DHT22;538;42.654;23.376;2023-03-14T17:01:04;13.30;1.00
1103;DHT22;538;42.654;23.376;2023-03-14T17:03:35;13.10;1.00
1103;DHT22;538;42.654;23.376;2023-03-14T17:06:02;13.00;1.00
1103;DHT22;538;42.654;23.376;2023-03-14T17:08:30;13.00;1.00
1103;DHT22;538;42.654;23.376;2023-03-14T17:10:57;12.80;1.00
1103;DHT22;538;42.654;23.376;2023-03-14T17:13:25;12.80;1.00
1103;DHT22;538;42.654;23.376;2023-03-14T17:15:53;12.70;1.00
1103;DHT22;538;42.654;23.376;2023-03-14T17:18:21;12.60;1.00
1103;DHT22;538;42.654;23.376;2023-03-14T17:20:50;12.60;1.00
1103;DHT22;538;42.654;23.376;2023-03-14T17:25:47;12.40;1.00
1103;DHT22;538;42.654;23.376;2023-03-14T17:30:43;12.30;1.00
1103;DHT22;538;42.654;23.376;2023-03-14T17:33:10;12.30;1.00
1103;DHT22;538;42.654;23.376;2023-03-14T17:35:37;12.40;1.00
1103;DHT22;538;42.654;23.376;2023-03-14T17:38:04;12.20;1.00
1103;DHT22;538;42.654;23.376;2023-03-14T17:40:31;12.10;1.00
1103;DHT22;538;42.654;23.376;2023-03-14T17:43:00;12.00;1.00
1103;DHT22;538;42.654;23.376;2023-03-14T17:45:27;12.00;1.00
1103;DHT22;538;42.654;23.376;2023-03-14T17:47:54;11.70;1.00
1103;DHT22;538;42.654;23.376;2023-03-14T17:50:21;11.70;1.00
1103;DHT22;538;42.654;23.376;2023-03-14T17:52:48;11.70;1.00
1103;DHT22;538;42.654;23.376;2023-03-14T17:55:16;11.70;1.00
1103;DHT22;538;42.654;23.376;2023-03-14T17:57:43;11.70;1.00